Time;durP1;ratioP1;P1;durP2;ratioP2;P2;SDS_P1;SDS_P2;PMS_P1;PMS_P2;Temp;Humidity;BMP_temperature;BMP_pressure;BME280_temperature;BME280_humidity;BME280_pressure;Samples;Min_cycle;Max_cycle;Signal;HPM_P1;HPM_P2
2022/10/12 00:01:21;;;;;;;3.03;1.60;;;8.30;90.30;;;;;;5035479;28;20025;-62
2022/10/12 00:03:47;;;;;;;5.10;1.85;;;8.30;90.60;;;;;;5019643;28;20049;-62
2022/10/12 00:06:18;;;;;;;2.97;1.50;;;8.20;90.90;;;;;;5039429;28;20551;-61
2022/10/12 00:08:46;;;;;;;1.90;1.08;;;8.20;91.30;;;;;;5020699;28;20512;-62
2022/10/12 00:11:14;;;;;;;1.90;0.98;;;8.00;91.70;;;;;;5018648;28;20096;-62
2022/10/12 00:13:40;;;;;;;2.45;1.10;;;8.00;91.90;;;;;;5034974;28;20021;-62
2022/10/12 00:16:07;;;;;;;3.10;1.13;;;8.00;92.20;;;;;;5024002;28;20036;-62
2022/10/12 00:18:34;;;;;;;2.75;1.38;;;8.00;91.90;;;;;;5017235;28;20030;-62
2022/10/12 00:21:04;;;;;;;2.60;1.33;;;8.10;91.90;;;;;;5027799;28;20091;-62
2022/10/12 00:23:30;;;;;;;3.78;1.67;;;8.10;91.90;;;;;;5026087;28;20029;-62
2022/10/12 00:25:59;;;;;;;4.53;1.48;;;8.10;91.90;;;;;;5025786;28;20379;-62
2022/10/12 00:28:25;;;;;;;4.17;1.73;;;8.10;92.00;;;;;;5020363;28;20030;-62
2022/10/12 00:30:50;;;;;;;3.50;1.75;;;8.00;92.00;;;;;;5019776;28;20375;-62
2022/10/12 00:33:16;;;;;;;3.45;1.67;;;8.00;92.00;;;;;;5035832;28;20481;-62
2022/10/12 00:35:41;;;;;;;3.35;1.45;;;8.00;92.10;;;;;;5019414;28;20407;-62
2022/10/12 00:38:07;;;;;;;3.65;1.73;;;8.00;92.10;;;;;;5024988;28;20079;-62
2022/10/12 00:40:32;;;;;;;3.92;1.27;;;8.00;92.20;;;;;;5020830;28;20057;-62
2022/10/12 00:42:58;;;;;;;4.15;1.77;;;8.00;92.20;;;;;;5022827;28;20077;-62
2022/10/12 00:45:25;;;;;;;3.83;1.60;;;8.00;92.30;;;;;;5023757;28;20063;-62
2022/10/12 00:47:55;;;;;;;3.38;1.60;;;8.00;92.30;;;;;;5041065;28;20017;-62
2022/10/12 00:50:26;;;;;;;6.82;1.90;;;8.00;92.40;;;;;;5019898;28;20029;-62
2022/10/12 00:52:58;;;;;;;4.35;1.88;;;7.90;92.50;;;;;;5024225;28;20029;-62
2022/10/12 00:55:27;;;;;;;3.28;1.92;;;7.90;92.50;;;;;;5011351;28;20493;-62
2022/10/12 00:57:54;;;;;;;3.75;1.48;;;7.90;92.60;;;;;;5028316;28;20029;-62
2022/10/12 01:00:21;;;;;;;2.72;1.50;;;7.90;92.70;;;;;;5023143;28;20021;-62
2022/10/12 01:02:49;;;;;;;4.30;1.80;;;7.90;92.70;;;;;;5023934;28;20738;-62
2022/10/12 01:05:16;;;;;;;4.78;2.00;;;7.90;92.80;;;;;;5025819;28;20028;-62
2022/10/12 01:07:41;;;;;;;3.40;1.90;;;7.90;92.80;;;;;;5022681;28;20025;-62
2022/10/12 01:10:07;;;;;;;2.00;1.40;;;7.90;92.90;;;;;;5025529;28;20600;-62
2022/10/12 01:12:34;;;;;;;3.22;1.88;;;8.00;92.90;;;;;;5028099;28;20104;-62
2022/10/12 01:15:00;;;;;;;4.45;1.60;;;7.90;92.90;;;;;;5035895;28;20117;-62
2022/10/12 01:17:49;;;;;;;4.55;1.42;;;7.90;93.00;;;;;;5024593;28;20120;-62
2022/10/12 01:20:37;;;;;;;2.45;1.33;;;8.00;93.10;;;;;;5026956;28;20025;-62
2022/10/12 01:23:05;;;;;;;3.47;1.40;;;7.90;93.20;;;;;;5022159;28;20030;-62
2022/10/12 01:25:56;;;;;;;3.80;1.70;;;7.90;93.30;;;;;;5020943;28;20025;-62
2022/10/12 01:28:33;;;;;;;3.20;1.38;;;7.90;93.40;;;;;;5022144;28;20129;-62
2022/10/12 01:31:10;;;;;;;3.10;1.10;;;8.00;93.50;;;;;;5022079;28;20460;-62
2022/10/12 01:33:44;;;;;;;2.10;1.23;;;7.90;93.50;;;;;;5020019;28;20072;-62
2022/10/12 01:36:19;;;;;;;5.05;1.25;;;8.00;93.60;;;;;;5026099;28;20040;-62
2022/10/12 01:38:54;;;;;;;4.43;1.20;;;7.90;93.60;;;;;;5023126;28;20477;-62
2022/10/12 01:41:35;;;;;;;4.28;1.27;;;8.00;93.80;;;;;;5024201;28;20046;-61
2022/10/12 01:44:00;;;;;;;3.13;1.27;;;8.00;93.80;;;;;;5022626;28;20030;-62
2022/10/12 01:46:25;;;;;;;3.55;1.38;;;7.90;93.90;;;;;;5027754;28;20079;-62
2022/10/12 01:48:55;;;;;;;3.08;1.67;;;7.90;93.90;;;;;;5026999;28;20021;-62
2022/10/12 01:51:52;;;;;;;3.20;1.60;;;7.90;94.00;;;;;;5023131;28;20026;-62
2022/10/12 01:54:36;;;;;;;2.67;1.10;;;8.00;94.10;;;;;;5023509;28;20394;-62
2022/10/12 01:57:17;;;;;;;3.47;1.45;;;7.90;94.10;;;;;;5028083;28;20389;-62
2022/10/12 01:59:51;;;;;;;3.75;1.90;;;7.90;94.20;;;;;;5024373;28;20033;-62
2022/10/12 02:02:33;;;;;;;2.33;1.25;;;7.90;94.20;;;;;;5028643;28;20428;-62
2022/10/12 02:05:22;;;;;;;4.05;1.42;;;7.90;94.30;;;;;;5025368;28;20055;-62
2022/10/12 02:08:01;;;;;;;3.28;1.75;;;7.90;94.40;;;;;;5041560;28;20232;-61
2022/10/12 02:10:34;;;;;;;2.78;1.50;;;7.90;94.50;;;;;;5026892;28;20515;-62
2022/10/12 02:13:05;;;;;;;6.43;1.73;;;7.80;94.50;;;;;;5031332;28;20044;-62
2022/10/12 02:15:32;;;;;;;1.73;1.25;;;7.80;94.60;;;;;;5028652;28;20629;-62
2022/10/12 02:18:01;;;;;;;5.20;1.30;;;7.80;94.70;;;;;;5025525;28;20842;-62
2022/10/12 02:20:27;;;;;;;3.55;1.38;;;7.80;94.70;;;;;;5026979;28;20030;-62
2022/10/12 02:22:53;;;;;;;2.03;1.20;;;7.70;94.80;;;;;;5023569;28;20026;-62
2022/10/12 02:25:22;;;;;;;4.03;1.80;;;7.70;94.90;;;;;;5024516;28;20018;-62
2022/10/12 02:27:56;;;;;;;4.63;1.63;;;7.70;95.00;;;;;;5026786;28;20021;-62
2022/10/12 02:30:22;;;;;;;3.70;1.73;;;7.60;95.20;;;;;;5027626;28;20018;-62
2022/10/12 02:33:14;;;;;;;3.55;1.60;;;7.60;95.30;;;;;;5024415;28;20025;-62
2022/10/12 02:35:48;;;;;;;3.53;1.50;;;7.60;95.40;;;;;;5042616;28;20041;-62
2022/10/12 02:38:21;;;;;;;3.15;1.77;;;7.50;95.70;;;;;;5022053;28;20506;-62
2022/10/12 02:40:53;;;;;;;3.90;1.50;;;7.50;95.80;;;;;;5021519;28;20045;-62
2022/10/12 02:43:22;;;;;;;3.33;1.25;;;7.50;95.90;;;;;;5024935;28;20060;-62
2022/10/12 02:45:49;;;;;;;2.72;1.40;;;7.50;95.90;;;;;;5031401;28;20034;-62
2022/10/12 02:48:19;;;;;;;3.45;1.42;;;7.50;95.90;;;;;;5026136;28;20029;-62
2022/10/12 02:50:46;;;;;;;2.30;1.05;;;7.60;95.90;;;;;;5024268;28;20041;-62
2022/10/12 02:53:12;;;;;;;2.45;1.30;;;7.60;95.90;;;;;;5024908;28;20044;-62
2022/10/12 02:55:47;;;;;;;2.60;1.27;;;7.60;95.90;;;;;;5021376;28;20151;-62
2022/10/12 02:58:13;;;;;;;2.05;1.13;;;7.60;96.00;;;;;;5027825;28;20026;-62
2022/10/12 03:00:38;;;;;;;3.15;1.30;;;7.60;96.00;;;;;;5028882;28;20028;-62
2022/10/12 03:03:04;;;;;;;2.63;1.20;;;7.60;96.00;;;;;;5021646;28;20144;-62
2022/10/12 03:05:29;;;;;;;3.65;1.20;;;7.60;96.00;;;;;;5027381;28;20037;-62
2022/10/12 03:07:55;;;;;;;3.53;1.20;;;7.60;96.10;;;;;;5029741;28;20495;-62
2022/10/12 03:10:20;;;;;;;2.22;1.00;;;7.50;96.10;;;;;;5026932;28;20026;-62
2022/10/12 03:12:46;;;;;;;2.15;0.98;;;7.50;96.20;;;;;;5020622;28;20034;-61
2022/10/12 03:15:11;;;;;;;2.42;1.17;;;7.50;96.20;;;;;;5026852;28;20057;-62
2022/10/12 03:17:37;;;;;;;3.05;1.30;;;7.50;96.20;;;;;;5026395;28;20032;-61
2022/10/12 03:20:03;;;;;;;1.88;1.20;;;7.50;96.30;;;;;;5021329;28;20178;-62
2022/10/12 03:22:28;;;;;;;2.45;1.45;;;7.50;96.30;;;;;;5029606;28;20021;-62
2022/10/12 03:24:54;;;;;;;2.28;1.23;;;7.50;96.30;;;;;;5027866;28;20132;-62
2022/10/12 03:27:19;;;;;;;2.10;1.15;;;7.50;96.40;;;;;;5026173;28;20040;-62
2022/10/12 03:29:45;;;;;;;5.25;1.75;;;7.50;96.40;;;;;;5026412;28;20033;-62
2022/10/12 03:32:10;;;;;;;4.10;1.60;;;7.40;96.70;;;;;;5023945;28;20032;-61
2022/10/12 03:34:36;;;;;;;3.83;1.70;;;7.30;96.90;;;;;;5021341;28;20037;-61
2022/10/12 03:37:01;;;;;;;2.58;1.33;;;7.30;97.00;;;;;;5010169;28;20022;-62
2022/10/12 03:39:27;;;;;;;2.75;1.40;;;7.30;97.20;;;;;;5034786;28;20022;-62
2022/10/12 03:41:52;;;;;;;3.85;1.48;;;7.30;97.20;;;;;;5021263;28;20050;-61
2022/10/12 03:44:18;;;;;;;2.15;1.15;;;7.30;97.40;;;;;;5037606;28;20028;-62
2022/10/12 03:46:43;;;;;;;1.70;1.33;;;7.20;97.20;;;;;;5022024;28;20029;-62
2022/10/12 03:49:09;;;;;;;2.35;1.10;;;7.30;97.20;;;;;;5023284;28;20037;-62
2022/10/12 03:51:34;;;;;;;2.30;1.20;;;7.20;97.20;;;;;;5027080;28;20095;-62
2022/10/12 03:54:00;;;;;;;3.10;1.15;;;7.20;97.20;;;;;;5028657;28;20041;-62
2022/10/12 03:56:25;;;;;;;2.60;1.23;;;7.20;97.20;;;;;;5020887;28;20061;-62
2022/10/12 03:58:51;;;;;;;3.72;1.67;;;7.20;97.30;;;;;;5021591;28;20101;-61
2022/10/12 04:01:16;;;;;;;2.17;1.42;;;7.20;97.20;;;;;;5019700;28;20047;-62
2022/10/12 04:03:42;;;;;;;2.08;1.33;;;7.10;97.30;;;;;;5019799;28;20013;-61
2022/10/12 04:06:07;;;;;;;3.08;1.33;;;7.10;97.30;;;;;;5024176;28;20482;-62
2022/10/12 04:08:33;;;;;;;3.33;1.00;;;7.10;97.30;;;;;;5026140;28;20504;-62
2022/10/12 04:10:58;;;;;;;3.30;1.10;;;7.10;97.30;;;;;;5019629;28;20501;-62
2022/10/12 04:13:24;;;;;;;2.80;1.23;;;7.10;97.30;;;;;;5019504;28;20030;-62
2022/10/12 04:15:49;;;;;;;2.65;1.10;;;7.10;97.60;;;;;;5025858;28;20371;-62
2022/10/12 04:18:15;;;;;;;4.40;1.40;;;7.10;97.40;;;;;;5023339;28;20021;-62
2022/10/12 04:20:41;;;;;;;2.38;1.30;;;7.10;97.40;;;;;;5018120;28;20529;-61
2022/10/12 04:23:06;;;;;;;2.20;1.00;;;7.00;97.40;;;;;;5028400;28;20028;-61
2022/10/12 04:25:32;;;;;;;1.98;1.20;;;7.00;97.50;;;;;;5026114;28;20473;-62
2022/10/12 04:27:58;;;;;;;3.95;1.27;;;6.90;97.50;;;;;;5022010;28;20033;-61
2022/10/12 04:30:23;;;;;;;2.63;1.40;;;6.80;97.60;;;;;;5021476;28;20029;-61
2022/10/12 04:32:51;;;;;;;2.33;1.02;;;6.70;97.80;;;;;;5036305;28;20029;-62
2022/10/12 04:35:16;;;;;;;3.88;0.98;;;6.70;98.00;;;;;;5018599;28;20528;-61
2022/10/12 04:37:42;;;;;;;1.58;0.90;;;6.60;98.00;;;;;;5026915;28;20021;-62
2022/10/12 04:40:08;;;;;;;1.38;0.80;;;6.60;98.10;;;;;;5019991;28;20096;-62
2022/10/12 04:42:33;;;;;;;1.10;0.73;;;6.60;98.10;;;;;;5022855;28;20038;-61
2022/10/12 04:44:59;;;;;;;1.40;0.90;;;6.60;98.10;;;;;;5028490;28;20485;-61
2022/10/12 04:47:24;;;;;;;1.40;0.88;;;6.60;98.10;;;;;;5019732;28;20030;-61
2022/10/12 04:49:50;;;;;;;1.90;1.02;;;6.50;98.00;;;;;;5025622;28;20578;-61
2022/10/12 04:52:15;;;;;;;3.15;0.85;;;6.50;98.00;;;;;;5023461;28;20034;-61
2022/10/12 04:54:41;;;;;;;2.40;1.08;;;6.60;98.00;;;;;;5025084;28;20307;-61
2022/10/12 04:57:06;;;;;;;2.30;1.08;;;6.50;97.90;;;;;;5034940;28;20025;-61
2022/10/12 04:59:32;;;;;;;2.42;1.00;;;6.50;97.90;;;;;;5020932;28;20022;-62
2022/10/12 05:01:57;;;;;;;2.15;1.20;;;6.50;97.90;;;;;;5030290;28;20029;-62
2022/10/12 05:04:23;;;;;;;2.90;1.05;;;6.50;97.90;;;;;;5034256;28;20060;-62
2022/10/12 05:06:48;;;;;;;2.78;1.15;;;6.50;97.90;;;;;;5034160;28;20085;-61
2022/10/12 05:09:14;;;;;;;2.20;1.20;;;6.50;97.80;;;;;;5035713;28;20454;-62
2022/10/12 05:11:39;;;;;;;2.00;1.00;;;6.50;97.80;;;;;;5035035;28;20039;-61
2022/10/12 05:14:05;;;;;;;2.97;1.13;;;6.50;97.80;;;;;;5035974;28;20112;-62
2022/10/12 05:16:30;;;;;;;2.13;1.10;;;6.50;97.90;;;;;;5034810;28;20033;-61
2022/10/12 05:18:56;;;;;;;3.22;1.00;;;6.50;97.90;;;;;;5035697;28;20474;-61
2022/10/12 05:21:21;;;;;;;1.70;1.00;;;6.40;97.80;;;;;;5021069;28;20544;-62
2022/10/12 05:23:51;;;;;;;4.60;1.30;;;6.40;97.80;;;;;;5016091;28;20026;-61
2022/10/12 05:26:17;;;;;;;4.38;1.15;;;6.40;97.80;;;;;;5030984;28;20032;-62
2022/10/12 05:28:42;;;;;;;4.13;1.20;;;6.30;97.80;;;;;;5032359;28;20026;-61
2022/10/12 05:31:08;;;;;;;2.70;1.50;;;6.30;97.90;;;;;;5029699;28;20032;-61
2022/10/12 05:33:33;;;;;;;4.18;1.38;;;6.30;97.90;;;;;;5026439;28;20033;-62
2022/10/12 05:35:59;;;;;;;3.42;1.08;;;6.30;97.90;;;;;;5034760;28;20069;-61
2022/10/12 05:38:24;;;;;;;3.30;1.55;;;6.30;97.90;;;;;;5022786;28;20021;-61
2022/10/12 05:40:50;;;;;;;3.20;1.00;;;6.30;97.90;;;;;;5028906;28;20033;-61
2022/10/12 05:43:15;;;;;;;3.78;1.15;;;6.30;97.90;;;;;;5033937;28;20030;-61
2022/10/12 05:45:42;;;;;;;2.65;1.23;;;6.30;97.90;;;;;;5026424;28;20061;-61
2022/10/12 05:48:08;;;;;;;6.72;1.70;;;6.30;97.90;;;;;;5030309;28;20042;-61
2022/10/12 05:50:33;;;;;;;3.42;1.20;;;6.30;97.90;;;;;;5028963;28;20040;-61
2022/10/12 05:52:59;;;;;;;3.25;1.50;;;6.30;97.90;;;;;;5027491;28;20075;-61
2022/10/12 05:55:24;;;;;;;2.67;1.00;;;6.20;97.90;;;;;;5021675;28;20112;-61
2022/10/12 05:57:50;;;;;;;2.25;0.93;;;6.20;97.90;;;;;;5035218;28;20021;-61
2022/10/12 06:00:16;;;;;;;5.00;1.27;;;6.30;97.90;;;;;;5021450;28;20032;-61
2022/10/12 06:02:41;;;;;;;2.63;1.27;;;6.20;97.80;;;;;;5034872;28;20033;-62
2022/10/12 06:05:07;;;;;;;1.83;0.98;;;6.20;97.80;;;;;;5033580;28;20036;-61
2022/10/12 06:07:33;;;;;;;3.53;1.00;;;6.30;97.90;;;;;;5032941;28;20359;-62
2022/10/12 06:09:59;;;;;;;2.50;0.98;;;6.30;97.90;;;;;;5031121;28;20040;-62
2022/10/12 06:12:25;;;;;;;2.70;0.98;;;6.20;97.90;;;;;;5034468;28;20026;-61
2022/10/12 06:14:51;;;;;;;4.03;1.17;;;6.20;97.90;;;;;;5034855;28;20021;-62
2022/10/12 06:17:17;;;;;;;4.03;1.05;;;6.30;97.90;;;;;;5027438;28;20105;-61
2022/10/12 06:19:42;;;;;;;2.33;1.10;;;6.30;97.90;;;;;;5034151;28;20223;-61
2022/10/12 06:22:08;;;;;;;3.60;1.00;;;6.30;97.90;;;;;;5034135;28;20029;-61
2022/10/12 06:24:33;;;;;;;2.92;1.27;;;6.30;97.90;;;;;;5033115;28;20028;-61
2022/10/12 06:26:59;;;;;;;2.33;1.10;;;6.30;97.90;;;;;;5034071;28;20029;-61
2022/10/12 06:29:24;;;;;;;2.20;0.80;;;6.40;97.90;;;;;;5033879;28;20024;-61
2022/10/12 06:31:50;;;;;;;2.83;1.00;;;6.40;97.90;;;;;;5033985;28;20028;-61
2022/10/12 06:34:16;;;;;;;3.10;0.95;;;6.40;97.90;;;;;;5033642;28;20499;-61
2022/10/12 06:36:41;;;;;;;3.22;1.25;;;6.40;97.90;;;;;;5034299;28;20031;-61
2022/10/12 06:39:08;;;;;;;3.72;1.23;;;6.50;97.90;;;;;;5034035;28;20390;-61
2022/10/12 06:41:34;;;;;;;3.72;0.95;;;6.50;97.90;;;;;;5033355;28;20438;-61
2022/10/12 06:43:59;;;;;;;2.42;0.90;;;6.60;97.90;;;;;;5033633;28;20045;-61
2022/10/12 06:46:25;;;;;;;3.10;0.90;;;6.60;97.90;;;;;;5033724;28;20031;-61
2022/10/12 06:48:50;;;;;;;2.28;0.80;;;6.60;97.90;;;;;;5033457;28;20425;-61
2022/10/12 06:51:16;;;;;;;1.63;0.80;;;6.70;97.90;;;;;;5033957;28;20025;-61
2022/10/12 06:53:41;;;;;;;2.22;0.90;;;6.80;97.90;;;;;;5032395;28;20104;-61
2022/10/12 06:56:08;;;;;;;2.90;1.10;;;6.80;97.90;;;;;;5025305;28;20512;-61
2022/10/12 06:58:34;;;;;;;3.63;1.20;;;6.80;97.80;;;;;;5016172;28;20021;-61
2022/10/12 07:01:04;;;;;;;3.80;1.50;;;6.90;97.80;;;;;;5015444;28;20032;-61
2022/10/12 07:03:30;;;;;;;;;;;6.90;97.90;;;;;;5016484;28;20042;-61
2022/10/12 07:06:07;;;;;;;2.65;0.88;;;6.90;97.80;;;;;;5015264;28;20317;-61
2022/10/12 07:08:33;;;;;;;2.47;1.05;;;7.00;97.90;;;;;;5022878;28;20482;-61
2022/10/12 07:11:03;;;;;;;2.40;1.10;;;7.00;97.90;;;;;;5030543;28;20072;-61
2022/10/12 07:13:30;;;;;;;1.50;1.10;;;7.10;97.80;;;;;;5021700;28;20719;-62
2022/10/12 07:15:55;;;;;;;4.53;1.33;;;7.20;97.90;;;;;;5029821;28;20038;-61
2022/10/12 07:18:21;;;;;;;3.13;1.17;;;7.20;97.80;;;;;;5031998;28;20021;-61
2022/10/12 07:20:46;;;;;;;2.70;1.30;;;7.30;97.90;;;;;;5031556;28;20363;-61
2022/10/12 07:23:12;;;;;;;4.57;2.20;;;7.30;97.80;;;;;;5031814;28;20060;-62
2022/10/12 07:25:37;;;;;;;10.18;3.45;;;7.40;97.90;;;;;;5032394;28;20404;-61
2022/10/12 07:28:05;;;;;;;8.77;4.05;;;7.40;98.00;;;;;;5032088;28;20021;-62
2022/10/12 07:30:30;;;;;;;11.68;5.32;;;7.40;98.40;;;;;;5032841;28;20017;-61
2022/10/12 07:32:56;;;;;;;10.32;5.30;;;7.40;99.10;;;;;;5033099;28;20017;-61
2022/10/12 07:35:21;;;;;;;8.52;4.88;;;7.40;99.50;;;;;;5032695;28;20029;-61
2022/10/12 07:37:48;;;;;;;14.25;6.20;;;7.30;99.90;;;;;;5031486;28;20037;-61
2022/10/12 07:40:14;;;;;;;10.80;5.65;;;7.40;99.90;;;;;;5032738;28;20018;-61
2022/10/12 07:42:39;;;;;;;12.00;6.25;;;7.40;99.90;;;;;;5032424;28;20147;-61
2022/10/12 07:45:06;;;;;;;12.15;6.22;;;7.40;99.90;;;;;;5032904;28;20100;-61
2022/10/12 07:47:31;;;;;;;12.70;6.25;;;7.50;99.90;;;;;;5031951;28;20033;-61
2022/10/12 07:49:57;;;;;;;11.25;6.65;;;7.40;99.90;;;;;;5032672;28;20032;-61
2022/10/12 07:52:22;;;;;;;14.15;5.40;;;7.50;99.90;;;;;;5032140;28;20105;-61
2022/10/12 07:54:48;;;;;;;8.85;5.22;;;7.60;99.90;;;;;;5032793;28;20056;-61
2022/10/12 07:57:13;;;;;;;8.25;4.60;;;7.60;99.90;;;;;;5028295;28;20061;-61
2022/10/12 07:59:39;;;;;;;15.15;7.60;;;7.70;99.90;;;;;;5024392;28;20229;-62
2022/10/12 08:02:04;;;;;;;13.57;7.57;;;7.70;99.90;;;;;;5031120;28;20108;-62
2022/10/12 08:04:30;;;;;;;16.38;8.43;;;7.80;99.90;;;;;;5047390;28;20029;-61
2022/10/12 08:06:57;;;;;;;16.25;8.00;;;7.80;99.90;;;;;;5031457;28;20464;-61
2022/10/12 08:09:22;;;;;;;14.90;9.05;;;7.80;99.90;;;;;;5031461;28;20075;-61
2022/10/12 08:11:48;;;;;;;13.25;7.50;;;7.90;99.90;;;;;;5019722;28;20425;-62
2022/10/12 08:14:15;;;;;;;17.88;8.98;;;7.90;99.90;;;;;;5040509;28;20477;-61
2022/10/12 08:16:41;;;;;;;10.68;6.80;;;8.00;99.90;;;;;;5016034;28;20029;-61
2022/10/12 08:19:07;;;;;;;14.40;8.65;;;8.10;99.90;;;;;;5018917;28;20074;-62
2022/10/12 08:21:33;;;;;;;20.40;10.35;;;8.20;99.90;;;;;;5035576;28;20017;-61
2022/10/12 08:23:58;;;;;;;13.38;9.10;;;8.20;99.90;;;;;;5038062;28;20020;-62
2022/10/12 08:26:24;;;;;;;19.33;9.82;;;8.30;99.90;;;;;;5021516;28;20461;-61
2022/10/12 08:28:49;;;;;;;14.63;8.23;;;8.30;99.90;;;;;;5014690;28;20057;-62
2022/10/12 08:31:16;;;;;;;12.27;8.20;;;8.40;99.90;;;;;;5039019;28;20516;-61
2022/10/12 08:33:42;;;;;;;10.95;7.60;;;8.40;99.90;;;;;;5045446;28;20153;-62
2022/10/12 08:36:09;;;;;;;17.98;9.55;;;8.50;99.90;;;;;;5033245;28;20116;-61
2022/10/12 08:38:38;;;;;;;11.43;6.57;;;8.60;99.90;;;;;;5044359;28;20447;-62
2022/10/12 08:41:15;;;;;;;11.93;7.03;;;8.70;99.90;;;;;;5042461;28;20021;-61
2022/10/12 08:44:21;;;;;;;11.95;6.80;;;8.80;99.90;;;;;;5033510;28;20022;-62
2022/10/12 08:46:48;;;;;;;8.88;5.30;;;9.00;99.90;;;;;;5046092;28;20033;-62
2022/10/12 08:49:22;;;;;;;7.75;5.22;;;9.10;99.90;;;;;;5045256;28;20033;-61
2022/10/12 08:51:52;;;;;;;16.60;7.70;;;9.10;99.90;;;;;;5038870;28;20047;-62
2022/10/12 08:54:21;;;;;;;10.35;5.90;;;9.20;99.90;;;;;;5031891;28;20030;-62
2022/10/12 08:56:47;;;;;;;8.80;5.70;;;9.30;99.90;;;;;;5029643;28;20037;-62
2022/10/12 08:59:16;;;;;;;7.38;5.18;;;9.40;99.90;;;;;;5040457;28;20267;-62
2022/10/12 09:02:09;;;;;;;9.23;6.10;;;9.50;99.90;;;;;;5042469;28;20017;-61
2022/10/12 09:04:58;;;;;;;12.65;6.75;;;9.60;99.90;;;;;;5016616;28;20029;-61
2022/10/12 09:07:34;;;;;;;18.95;11.05;;;9.80;99.90;;;;;;5051205;28;20032;-62
2022/10/12 09:10:28;;;;;;;16.38;8.52;;;9.90;99.90;;;;;;5042944;28;20063;-62
2022/10/12 09:12:59;;;;;;;16.00;10.48;;;10.00;99.90;;;;;;5030472;28;20104;-61
2022/10/12 09:15:31;;;;;;;15.75;8.45;;;10.10;99.90;;;;;;5040962;28;20032;-62
2022/10/12 09:17:59;;;;;;;13.63;7.82;;;10.20;99.90;;;;;;5033525;28;20497;-61
2022/10/12 09:20:35;;;;;;;9.90;6.53;;;10.30;99.90;;;;;;5035495;28;20060;-62
2022/10/12 09:23:24;;;;;;;11.13;6.13;;;10.50;99.90;;;;;;5040509;28;20025;-62
2022/10/12 09:25:53;;;;;;;19.50;9.10;;;10.60;99.90;;;;;;5030050;28;20026;-62
2022/10/12 09:28:26;;;;;;;17.15;9.93;;;10.70;99.90;;;;;;5034679;28;20037;-62
2022/10/12 09:31:17;;;;;;;20.00;10.95;;;10.80;99.90;;;;;;5037902;28;20022;-62
2022/10/12 09:33:47;;;;;;;17.15;10.30;;;10.90;99.90;;;;;;5039715;28;20025;-62
2022/10/12 09:36:18;;;;;;;17.80;10.75;;;11.00;99.90;;;;;;5026004;28;20044;-62
2022/10/12 09:38:44;;;;;;;20.08;10.38;;;11.10;99.70;;;;;;5040553;28;20474;-62
2022/10/12 09:41:28;;;;;;;15.93;8.77;;;11.20;99.50;;;;;;5037905;28;20125;-62
2022/10/12 09:43:58;;;;;;;19.33;9.25;;;11.50;99.00;;;;;;5034469;28;20027;-62
2022/10/12 09:46:41;;;;;;;11.50;6.57;;;11.70;98.60;;;;;;5034879;28;20040;-62
2022/10/12 09:49:07;;;;;;;16.63;8.20;;;12.00;98.40;;;;;;5023294;28;20030;-62
2022/10/12 09:51:33;;;;;;;15.15;8.35;;;12.20;97.50;;;;;;5042803;28;20079;-62
2022/10/12 09:54:04;;;;;;;15.35;7.00;;;12.40;96.80;;;;;;5035686;28;20508;-62
2022/10/12 09:56:41;;;;;;;15.45;9.50;;;12.80;96.70;;;;;;5034670;28;20128;-62
2022/10/12 09:59:24;;;;;;;13.93;7.75;;;13.10;95.60;;;;;;5041423;28;20017;-62
2022/10/12 10:02:10;;;;;;;13.05;7.70;;;13.30;94.60;;;;;;5037730;28;20021;-62
2022/10/12 10:04:39;;;;;;;16.80;9.63;;;13.70;93.70;;;;;;5026991;28;20020;-62
2022/10/12 10:07:30;;;;;;;15.80;8.27;;;14.00;92.80;;;;;;5035806;28;20048;-62
2022/10/12 10:10:20;;;;;;;16.60;8.50;;;14.40;92.80;;;;;;5031320;28;20196;-63
2022/10/12 10:12:54;;;;;;;10.57;5.90;;;15.20;91.70;;;;;;5028868;28;20469;-63
2022/10/12 10:15:31;;;;;;;12.68;7.05;;;17.30;87.50;;;;;;5051651;28;20073;-63
2022/10/12 10:18:00;;;;;;;13.00;6.45;;;19.30;75.60;;;;;;5046973;28;20112;-63
2022/10/12 10:20:31;;;;;;;11.57;6.00;;;19.70;70.30;;;;;;5035056;28;20067;-63
2022/10/12 10:22:58;;;;;;;11.63;5.75;;;19.40;68.30;;;;;;5042001;28;20017;-63
2022/10/12 10:25:24;;;;;;;11.88;6.10;;;19.50;69.10;;;;;;5041408;28;20044;-63
2022/10/12 10:28:10;;;;;;;12.13;6.72;;;20.60;68.20;;;;;;5035050;28;20508;-63
2022/10/12 10:30:35;;;;;;;15.95;7.63;;;22.00;63.70;;;;;;5030101;28;20026;-63
2022/10/12 10:33:16;;;;;;;10.68;5.93;;;22.80;58.00;;;;;;5032561;28;20548;-63
2022/10/12 10:35:55;;;;;;;9.63;6.80;;;24.30;55.90;;;;;;5032033;28;20027;-63
2022/10/12 10:38:21;;;;;;;11.15;6.88;;;25.10;52.00;;;;;;5034595;28;20111;-63
2022/10/12 10:40:53;;;;;;;12.35;6.25;;;24.80;50.60;;;;;;5034506;28;20489;-63
2022/10/12 10:43:24;;;;;;;11.77;6.95;;;25.80;50.40;;;;;;5035851;28;20044;-63
2022/10/12 10:45:52;;;;;;;11.80;6.20;;;27.00;47.50;;;;;;5024528;28;20017;-63
2022/10/12 10:48:21;;;;;;;10.40;6.18;;;28.20;45.90;;;;;;5041400;28;20024;-63
2022/10/12 10:50:55;;;;;;;9.68;5.45;;;29.90;44.50;;;;;;5034242;28;20515;-63
2022/10/12 10:53:23;;;;;;;10.88;6.53;;;31.90;42.50;;;;;;5034011;28;20418;-63
2022/10/12 10:56:27;;;;;;;10.10;5.80;;;32.50;38.90;;;;;;5032953;28;20045;-64
2022/10/12 10:59:00;;;;;;;6.85;4.38;;;32.30;38.30;;;;;;5000072;28;20386;-64
2022/10/12 11:01:38;;;;;;;7.10;4.22;;;33.70;39.10;;;;;;4981544;28;20022;-64
2022/10/12 11:04:13;;;;;;;7.32;4.55;;;35.80;37.70;;;;;;5013723;28;20037;-63
2022/10/12 11:06:39;;;;;;;11.45;5.90;;;37.30;36.00;;;;;;5042028;28;20367;-64
2022/10/12 11:09:14;;;;;;;6.70;4.97;;;37.20;33.70;;;;;;5028315;28;20077;-63
2022/10/12 11:11:42;;;;;;;9.77;5.68;;;38.10;34.10;;;;;;5033035;28;20029;-64
2022/10/12 11:14:20;;;;;;;7.90;4.30;;;39.30;32.90;;;;;;5039740;28;20032;-64
2022/10/12 11:16:57;;;;;;;7.53;4.22;;;40.20;32.70;;;;;;5038048;28;20026;-64
2022/10/12 11:19:42;;;;;;;8.00;5.10;;;41.30;32.10;;;;;;5037515;28;20025;-64
2022/10/12 11:22:15;;;;;;;11.70;6.65;;;41.30;30.80;;;;;;5041517;28;20025;-64
2022/10/12 11:24:46;;;;;;;10.20;6.78;;;40.30;29.60;;;;;;5031453;28;20096;-64
2022/10/12 11:27:19;;;;;;;10.98;7.57;;;37.30;30.50;;;;;;5035827;28;20021;-64
2022/10/12 11:29:45;;;;;;;9.77;6.13;;;36.10;31.30;;;;;;5036247;28;20032;-64
2022/10/12 11:32:28;;;;;;;8.70;6.05;;;34.50;32.90;;;;;;5035017;28;20025;-63
2022/10/12 11:35:00;;;;;;;11.60;5.88;;;33.90;33.50;;;;;;5021960;28;20025;-64
2022/10/12 11:37:46;;;;;;;10.60;7.53;;;32.70;34.40;;;;;;5019030;28;20024;-63
2022/10/12 11:40:22;;;;;;;10.73;7.13;;;31.70;35.00;;;;;;5032387;28;20029;-64
2022/10/12 11:42:50;;;;;;;12.85;8.02;;;30.30;36.70;;;;;;5026570;28;20034;-63
2022/10/12 11:45:27;;;;;;;9.93;6.60;;;29.30;37.90;;;;;;5022531;28;20026;-63
2022/10/12 11:47:59;;;;;;;10.90;7.47;;;28.50;38.90;;;;;;5019823;28;20038;-63
2022/10/12 11:50:36;;;;;;;12.05;8.07;;;28.50;38.60;;;;;;5027356;28;20049;-63
2022/10/12 11:53:07;;;;;;;14.38;8.43;;;27.80;39.70;;;;;;5030955;28;20033;-63
2022/10/12 11:55:39;;;;;;;13.63;8.45;;;28.00;40.40;;;;;;5032162;28;20109;-63
2022/10/12 11:58:18;;;;;;;11.20;8.18;;;28.50;39.60;;;;;;5031532;28;20032;-63
2022/10/12 12:01:12;;;;;;;13.70;8.93;;;28.80;40.00;;;;;;5013432;28;20033;-63
2022/10/12 12:03:40;;;;;;;14.02;7.82;;;29.30;38.80;;;;;;5026314;28;20021;-63
2022/10/12 12:06:27;;;;;;;14.05;8.75;;;29.10;38.80;;;;;;5024264;28;20029;-63
2022/10/12 12:09:02;;;;;;;12.50;9.00;;;29.10;37.60;;;;;;5013509;28;20454;-63
2022/10/12 12:11:30;;;;;;;14.55;9.05;;;27.70;39.10;;;;;;5012837;28;20029;-63
2022/10/12 12:14:24;;;;;;;14.35;9.15;;;26.00;41.60;;;;;;5022404;28;20056;-63
2022/10/12 12:17:08;;;;;;;17.58;10.00;;;24.90;44.00;;;;;;5019684;28;20021;-63
2022/10/12 12:19:41;;;;;;;17.38;10.05;;;23.80;45.90;;;;;;5021113;28;20025;-63
2022/10/12 12:22:27;;;;;;;15.50;9.88;;;23.20;47.50;;;;;;5013147;28;20129;-63
2022/10/12 12:24:53;;;;;;;12.80;8.45;;;22.90;48.30;;;;;;5019700;28;20019;-63
2022/10/12 12:27:31;;;;;;;15.85;9.02;;;22.80;48.90;;;;;;5030889;28;20036;-63
2022/10/12 12:29:59;;;;;;;12.45;7.22;;;23.00;48.40;;;;;;5035972;28;20104;-63
2022/10/12 12:32:38;;;;;;;17.92;10.77;;;23.20;48.10;;;;;;5022408;28;20111;-63
2022/10/12 12:35:04;;;;;;;17.98;11.15;;;23.30;48.10;;;;;;5032837;28;20025;-63
2022/10/12 12:37:33;;;;;;;16.17;11.00;;;22.80;48.60;;;;;;5031951;28;20366;-63
2022/10/12 12:39:58;;;;;;;;;;;22.20;49.60;;;;;;5020787;28;20127;-62
2022/10/12 12:42:32;;;;;;;16.50;11.40;;;21.40;51.20;;;;;;5030298;28;19917;-63
2022/10/12 12:45:38;;;;;;;17.88;10.93;;;20.80;53.20;;;;;;5045621;28;20473;-63
2022/10/12 12:48:09;;;;;;;21.27;11.80;;;20.20;54.90;;;;;;5027658;28;20029;-63
2022/10/12 12:50:38;;;;;;;17.00;11.60;;;19.90;56.20;;;;;;5030471;28;20105;-63
2022/10/12 12:53:19;;;;;;;17.48;11.25;;;19.50;57.00;;;;;;5027514;28;20025;-62
2022/10/12 12:56:04;;;;;;;15.45;9.70;;;19.20;58.10;;;;;;5031708;28;20516;-63
2022/10/12 12:59:07;;;;;;;17.38;8.75;;;18.90;57.10;;;;;;5026819;28;20040;-62
2022/10/12 13:02:02;;;;;;;16.10;9.57;;;18.50;57.90;;;;;;5019042;28;20030;-62
2022/10/12 13:04:56;;;;;;;14.07;9.38;;;18.30;58.30;;;;;;5032013;28;20072;-63
2022/10/12 13:07:53;;;;;;;18.67;9.00;;;18.10;59.20;;;;;;5026546;28;20033;-63